sensor_id;sensor_type;location;lat;lon;timestamp;P1;durP1;ratioP1;P2;durP2;ratioP2
2840;SDS011;53423;49.224;12.074;2022-10-16T00:00:08;3.70;;;3.23;;
2840;SDS011;53423;49.224;12.074;2022-10-16T00:02:36;3.40;;;3.20;;
2840;SDS011;53423;49.224;12.074;2022-10-16T00:05:05;5.07;;;3.60;;
2840;SDS011;53423;49.224;12.074;2022-10-16T00:07:33;3.47;;;3.10;;
2840;SDS011;53423;49.224;12.074;2022-10-16T00:10:01;6.23;;;3.00;;
2840;SDS011;53423;49.224;12.074;2022-10-16T00:12:29;4.43;;;3.10;;
2840;SDS011;53423;49.224;12.074;2022-10-16T00:14:57;5.97;;;3.47;;
2840;SDS011;53423;49.224;12.074;2022-10-16T00:17:24;5.53;;;3.63;;
2840;SDS011;53423;49.224;12.074;2022-10-16T00:19:52;4.63;;;3.37;;
2840;SDS011;53423;49.224;12.074;2022-10-16T00:22:21;4.90;;;3.47;;
2840;SDS011;53423;49.224;12.074;2022-10-16T00:24:49;3.70;;;3.40;;
2840;SDS011;53423;49.224;12.074;2022-10-16T00:27:17;6.97;;;3.63;;
2840;SDS011;53423;49.224;12.074;2022-10-16T00:29:45;4.20;;;3.63;;
2840;SDS011;53423;49.224;12.074;2022-10-16T00:32:16;3.83;;;3.43;;
2840;SDS011;53423;49.224;12.074;2022-10-16T00:34:44;4.07;;;3.57;;
2840;SDS011;53423;49.224;12.074;2022-10-16T00:37:12;4.93;;;3.63;;
2840;SDS011;53423;49.224;12.074;2022-10-16T00:39:41;3.73;;;3.33;;
2840;SDS011;53423;49.224;12.074;2022-10-16T00:42:10;5.00;;;3.37;;
2840;SDS011;53423;49.224;12.074;2022-10-16T00:44:44;7.10;;;3.30;;
2840;SDS011;53423;49.224;12.074;2022-10-16T00:47:15;4.40;;;3.47;;
2840;SDS011;53423;49.224;12.074;2022-10-16T00:49:48;4.33;;;3.37;;
2840;SDS011;53423;49.224;12.074;2022-10-16T00:52:18;5.03;;;3.30;;
2840;SDS011;53423;49.224;12.074;2022-10-16T00:54:48;3.13;;;2.90;;
2840;SDS011;53423;49.224;12.074;2022-10-16T00:57:17;4.97;;;3.23;;
2840;SDS011;53423;49.224;12.074;2022-10-16T00:59:45;3.43;;;3.10;;
2840;SDS011;53423;49.224;12.074;2022-10-16T01:02:15;4.97;;;3.30;;
2840;SDS011;53423;49.224;12.074;2022-10-16T01:04:43;4.57;;;3.00;;
2840;SDS011;53423;49.224;12.074;2022-10-16T01:07:17;5.27;;;3.10;;
2840;SDS011;53423;49.224;12.074;2022-10-16T01:09:55;5.50;;;3.30;;
2840;SDS011;53423;49.224;12.074;2022-10-16T01:12:32;4.07;;;3.30;;
2840;SDS011;53423;49.224;12.074;2022-10-16T01:15:14;3.23;;;2.93;;
2840;SDS011;53423;49.224;12.074;2022-10-16T01:17:47;4.00;;;3.23;;
2840;SDS011;53423;49.224;12.074;2022-10-16T01:20:21;4.60;;;3.13;;
2840;SDS011;53423;49.224;12.074;2022-10-16T01:23:05;3.57;;;2.90;;
2840;SDS011;53423;49.224;12.074;2022-10-16T01:25:48;4.27;;;3.10;;
2840;SDS011;53423;49.224;12.074;2022-10-16T01:28:26;4.70;;;3.47;;
2840;SDS011;53423;49.224;12.074;2022-10-16T01:30:58;5.77;;;3.63;;
2840;SDS011;53423;49.224;12.074;2022-10-16T01:33:28;5.47;;;3.20;;
2840;SDS011;53423;49.224;12.074;2022-10-16T01:36:03;3.43;;;3.17;;
2840;SDS011;53423;49.224;12.074;2022-10-16T01:38:38;4.80;;;3.23;;
2840;SDS011;53423;49.224;12.074;2022-10-16T01:41:08;3.93;;;2.73;;
2840;SDS011;53423;49.224;12.074;2022-10-16T01:43:40;7.10;;;3.43;;
2840;SDS011;53423;49.224;12.074;2022-10-16T01:46:10;3.30;;;3.00;;
2840;SDS011;53423;49.224;12.074;2022-10-16T01:48:42;3.40;;;3.20;;
2840;SDS011;53423;49.224;12.074;2022-10-16T01:51:11;3.23;;;2.60;;
2840;SDS011;53423;49.224;12.074;2022-10-16T01:53:41;3.93;;;3.00;;
2840;SDS011;53423;49.224;12.074;2022-10-16T01:56:14;3.23;;;2.93;;
2840;SDS011;53423;49.224;12.074;2022-10-16T01:58:47;3.90;;;3.00;;
2840;SDS011;53423;49.224;12.074;2022-10-16T02:01:19;3.90;;;3.27;;
2840;SDS011;53423;49.224;12.074;2022-10-16T02:03:49;3.20;;;2.90;;
2840;SDS011;53423;49.224;12.074;2022-10-16T02:06:20;3.50;;;3.20;;
2840;SDS011;53423;49.224;12.074;2022-10-16T02:08:48;3.10;;;2.80;;
2840;SDS011;53423;49.224;12.074;2022-10-16T02:11:16;6.57;;;3.47;;
2840;SDS011;53423;49.224;12.074;2022-10-16T02:13:46;5.83;;;3.10;;
2840;SDS011;53423;49.224;12.074;2022-10-16T02:16:18;3.13;;;2.83;;
2840;SDS011;53423;49.224;12.074;2022-10-16T02:18:46;3.77;;;3.40;;
2840;SDS011;53423;49.224;12.074;2022-10-16T02:21:15;3.93;;;2.97;;
2840;SDS011;53423;49.224;12.074;2022-10-16T02:23:51;3.40;;;3.03;;
2840;SDS011;53423;49.224;12.074;2022-10-16T02:26:27;5.00;;;3.10;;
2840;SDS011;53423;49.224;12.074;2022-10-16T02:29:03;4.60;;;3.10;;
2840;SDS011;53423;49.224;12.074;2022-10-16T02:31:34;3.27;;;3.00;;
2840;SDS011;53423;49.224;12.074;2022-10-16T02:34:05;4.53;;;2.80;;
2840;SDS011;53423;49.224;12.074;2022-10-16T02:36:35;5.00;;;3.17;;
2840;SDS011;53423;49.224;12.074;2022-10-16T02:39:03;3.40;;;2.90;;
2840;SDS011;53423;49.224;12.074;2022-10-16T02:41:32;7.07;;;3.47;;
2840;SDS011;53423;49.224;12.074;2022-10-16T02:44:02;5.40;;;3.10;;
2840;SDS011;53423;49.224;12.074;2022-10-16T02:46:29;3.80;;;3.27;;
2840;SDS011;53423;49.224;12.074;2022-10-16T02:48:57;3.93;;;3.27;;
2840;SDS011;53423;49.224;12.074;2022-10-16T02:51:25;4.53;;;3.53;;
2840;SDS011;53423;49.224;12.074;2022-10-16T02:53:53;6.57;;;3.53;;
2840;SDS011;53423;49.224;12.074;2022-10-16T02:56:20;4.13;;;3.47;;
2840;SDS011;53423;49.224;12.074;2022-10-16T02:58:48;4.40;;;3.40;;
2840;SDS011;53423;49.224;12.074;2022-10-16T03:01:17;5.33;;;3.37;;
2840;SDS011;53423;49.224;12.074;2022-10-16T03:03:45;4.10;;;3.70;;
2840;SDS011;53423;49.224;12.074;2022-10-16T03:06:13;5.70;;;3.50;;
2840;SDS011;53423;49.224;12.074;2022-10-16T03:08:41;4.63;;;3.50;;
2840;SDS011;53423;49.224;12.074;2022-10-16T03:11:08;5.23;;;3.73;;
2840;SDS011;53423;49.224;12.074;2022-10-16T03:13:36;5.07;;;3.60;;
2840;SDS011;53423;49.224;12.074;2022-10-16T03:16:04;4.77;;;3.40;;
2840;SDS011;53423;49.224;12.074;2022-10-16T03:18:33;6.13;;;3.97;;
2840;SDS011;53423;49.224;12.074;2022-10-16T03:21:00;3.37;;;3.17;;
2840;SDS011;53423;49.224;12.074;2022-10-16T03:23:28;4.27;;;3.87;;
2840;SDS011;53423;49.224;12.074;2022-10-16T03:26:01;4.67;;;3.80;;
2840;SDS011;53423;49.224;12.074;2022-10-16T03:28:28;4.30;;;3.27;;
2840;SDS011;53423;49.224;12.074;2022-10-16T03:30:56;5.23;;;4.00;;
2840;SDS011;53423;49.224;12.074;2022-10-16T03:33:24;4.13;;;3.73;;
2840;SDS011;53423;49.224;12.074;2022-10-16T03:35:53;4.77;;;4.03;;
2840;SDS011;53423;49.224;12.074;2022-10-16T03:38:21;7.03;;;4.17;;
2840;SDS011;53423;49.224;12.074;2022-10-16T03:40:49;5.57;;;3.97;;
2840;SDS011;53423;49.224;12.074;2022-10-16T03:43:17;4.50;;;4.10;;
2840;SDS011;53423;49.224;12.074;2022-10-16T03:45:45;5.07;;;3.90;;
2840;SDS011;53423;49.224;12.074;2022-10-16T03:48:12;5.57;;;3.73;;
2840;SDS011;53423;49.224;12.074;2022-10-16T03:50:40;3.80;;;3.50;;
2840;SDS011;53423;49.224;12.074;2022-10-16T03:53:09;4.33;;;3.47;;
2840;SDS011;53423;49.224;12.074;2022-10-16T03:55:37;4.70;;;3.60;;
2840;SDS011;53423;49.224;12.074;2022-10-16T03:58:05;4.80;;;3.40;;
2840;SDS011;53423;49.224;12.074;2022-10-16T04:00:32;4.33;;;3.90;;
2840;SDS011;53423;49.224;12.074;2022-10-16T04:03:00;4.23;;;3.90;;
2840;SDS011;53423;49.224;12.074;2022-10-16T04:05:28;4.30;;;3.77;;
2840;SDS011;53423;49.224;12.074;2022-10-16T04:07:55;5.00;;;4.00;;
2840;SDS011;53423;49.224;12.074;2022-10-16T04:10:24;4.57;;;3.97;;
2840;SDS011;53423;49.224;12.074;2022-10-16T04:12:52;4.20;;;3.90;;
2840;SDS011;53423;49.224;12.074;2022-10-16T04:15:22;4.07;;;3.77;;
2840;SDS011;53423;49.224;12.074;2022-10-16T04:17:50;6.17;;;3.83;;
2840;SDS011;53423;49.224;12.074;2022-10-16T04:20:19;4.53;;;3.40;;
2840;SDS011;53423;49.224;12.074;2022-10-16T04:22:46;6.47;;;3.90;;
2840;SDS011;53423;49.224;12.074;2022-10-16T04:25:14;6.57;;;4.10;;
2840;SDS011;53423;49.224;12.074;2022-10-16T04:27:43;5.53;;;4.00;;
2840;SDS011;53423;49.224;12.074;2022-10-16T04:30:11;4.43;;;3.90;;
2840;SDS011;53423;49.224;12.074;2022-10-16T04:32:39;5.30;;;3.57;;
2840;SDS011;53423;49.224;12.074;2022-10-16T04:35:07;3.50;;;3.20;;
2840;SDS011;53423;49.224;12.074;2022-10-16T04:37:35;5.37;;;3.50;;
2840;SDS011;53423;49.224;12.074;2022-10-16T04:40:03;6.13;;;3.47;;
2840;SDS011;53423;49.224;12.074;2022-10-16T04:42:32;3.63;;;3.30;;
2840;SDS011;53423;49.224;12.074;2022-10-16T04:45:01;4.73;;;4.33;;
2840;SDS011;53423;49.224;12.074;2022-10-16T04:47:29;6.23;;;4.07;;
2840;SDS011;53423;49.224;12.074;2022-10-16T04:49:56;4.67;;;3.73;;
2840;SDS011;53423;49.224;12.074;2022-10-16T04:52:24;4.23;;;3.83;;
2840;SDS011;53423;49.224;12.074;2022-10-16T04:54:52;4.30;;;3.60;;
2840;SDS011;53423;49.224;12.074;2022-10-16T04:57:21;5.33;;;3.10;;
2840;SDS011;53423;49.224;12.074;2022-10-16T04:59:49;3.63;;;3.33;;
2840;SDS011;53423;49.224;12.074;2022-10-16T05:02:19;3.60;;;3.30;;
2840;SDS011;53423;49.224;12.074;2022-10-16T05:04:46;4.57;;;3.60;;
2840;SDS011;53423;49.224;12.074;2022-10-16T05:07:14;7.80;;;3.80;;
2840;SDS011;53423;49.224;12.074;2022-10-16T05:09:42;3.60;;;3.30;;
2840;SDS011;53423;49.224;12.074;2022-10-16T05:12:10;4.37;;;3.30;;
2840;SDS011;53423;49.224;12.074;2022-10-16T05:14:38;3.80;;;3.47;;
2840;SDS011;53423;49.224;12.074;2022-10-16T05:17:05;3.90;;;3.50;;
2840;SDS011;53423;49.224;12.074;2022-10-16T05:19:34;7.73;;;3.77;;
2840;SDS011;53423;49.224;12.074;2022-10-16T05:22:02;4.23;;;3.30;;
2840;SDS011;53423;49.224;12.074;2022-10-16T05:24:30;4.30;;;3.90;;
2840;SDS011;53423;49.224;12.074;2022-10-16T05:26:58;4.67;;;3.63;;
2840;SDS011;53423;49.224;12.074;2022-10-16T05:29:25;4.23;;;3.70;;
2840;SDS011;53423;49.224;12.074;2022-10-16T05:31:53;4.53;;;3.83;;
2840;SDS011;53423;49.224;12.074;2022-10-16T05:34:21;4.63;;;3.50;;
2840;SDS011;53423;49.224;12.074;2022-10-16T05:36:50;4.47;;;3.10;;
2840;SDS011;53423;49.224;12.074;2022-10-16T05:39:17;5.93;;;3.50;;
2840;SDS011;53423;49.224;12.074;2022-10-16T05:41:45;4.20;;;3.80;;
2840;SDS011;53423;49.224;12.074;2022-10-16T05:44:13;4.60;;;3.83;;
2840;SDS011;53423;49.224;12.074;2022-10-16T05:46:41;4.20;;;3.23;;
2840;SDS011;53423;49.224;12.074;2022-10-16T05:49:08;4.00;;;3.60;;
2840;SDS011;53423;49.224;12.074;2022-10-16T05:51:36;4.43;;;4.03;;
2840;SDS011;53423;49.224;12.074;2022-10-16T05:54:05;5.53;;;3.80;;
2840;SDS011;53423;49.224;12.074;2022-10-16T05:56:33;4.10;;;3.57;;
2840;SDS011;53423;49.224;12.074;2022-10-16T05:59:01;6.70;;;4.07;;
2840;SDS011;53423;49.224;12.074;2022-10-16T06:01:30;4.90;;;3.97;;
2840;SDS011;53423;49.224;12.074;2022-10-16T06:03:58;4.67;;;4.23;;
2840;SDS011;53423;49.224;12.074;2022-10-16T06:06:27;4.60;;;4.20;;
2840;SDS011;53423;49.224;12.074;2022-10-16T06:08:56;4.80;;;3.63;;
2840;SDS011;53423;49.224;12.074;2022-10-16T06:11:28;4.20;;;3.63;;
2840;SDS011;53423;49.224;12.074;2022-10-16T06:13:57;3.83;;;3.53;;
2840;SDS011;53423;49.224;12.074;2022-10-16T06:16:27;4.07;;;3.40;;
2840;SDS011;53423;49.224;12.074;2022-10-16T06:18:55;5.17;;;3.60;;
2840;SDS011;53423;49.224;12.074;2022-10-16T06:21:25;3.87;;;3.33;;
2840;SDS011;53423;49.224;12.074;2022-10-16T06:23:54;3.93;;;3.53;;
2840;SDS011;53423;49.224;12.074;2022-10-16T06:26:24;4.13;;;3.60;;
2840;SDS011;53423;49.224;12.074;2022-10-16T06:28:55;8.17;;;3.80;;
2840;SDS011;53423;49.224;12.074;2022-10-16T06:31:24;3.80;;;3.50;;
2840;SDS011;53423;49.224;12.074;2022-10-16T06:33:54;3.83;;;3.50;;
2840;SDS011;53423;49.224;12.074;2022-10-16T06:36:22;5.30;;;3.30;;
2840;SDS011;53423;49.224;12.074;2022-10-16T06:38:51;6.50;;;4.03;;
2840;SDS011;53423;49.224;12.074;2022-10-16T06:41:19;5.23;;;3.20;;
2840;SDS011;53423;49.224;12.074;2022-10-16T06:43:50;4.17;;;3.70;;
2840;SDS011;53423;49.224;12.074;2022-10-16T06:46:18;4.00;;;3.60;;
2840;SDS011;53423;49.224;12.074;2022-10-16T06:48:47;5.00;;;3.57;;
2840;SDS011;53423;49.224;12.074;2022-10-16T06:51:16;4.93;;;3.30;;
2840;SDS011;53423;49.224;12.074;2022-10-16T06:53:46;4.87;;;3.47;;
2840;SDS011;53423;49.224;12.074;2022-10-16T06:56:31;6.07;;;3.33;;
2840;SDS011;53423;49.224;12.074;2022-10-16T06:59:00;4.93;;;3.30;;
2840;SDS011;53423;49.224;12.074;2022-10-16T07:01:29;4.33;;;3.40;;
2840;SDS011;53423;49.224;12.074;2022-10-16T07:03:57;3.90;;;3.60;;
2840;SDS011;53423;49.224;12.074;2022-10-16T07:06:26;3.57;;;3.27;;
2840;SDS011;53423;49.224;12.074;2022-10-16T07:08:54;4.17;;;3.87;;
2840;SDS011;53423;49.224;12.074;2022-10-16T07:11:22;3.83;;;3.43;;
2840;SDS011;53423;49.224;12.074;2022-10-16T07:13:51;4.97;;;3.30;;
2840;SDS011;53423;49.224;12.074;2022-10-16T07:16:23;4.33;;;3.90;;
2840;SDS011;53423;49.224;12.074;2022-10-16T07:18:53;4.27;;;3.43;;
2840;SDS011;53423;49.224;12.074;2022-10-16T07:21:25;4.73;;;3.60;;
2840;SDS011;53423;49.224;12.074;2022-10-16T07:23:55;3.37;;;3.03;;
2840;SDS011;53423;49.224;12.074;2022-10-16T07:26:24;4.73;;;3.13;;
2840;SDS011;53423;49.224;12.074;2022-10-16T07:28:53;4.77;;;3.43;;
2840;SDS011;53423;49.224;12.074;2022-10-16T07:31:22;3.23;;;2.93;;
2840;SDS011;53423;49.224;12.074;2022-10-16T07:33:50;3.67;;;3.37;;
2840;SDS011;53423;49.224;12.074;2022-10-16T07:36:19;3.80;;;3.37;;
2840;SDS011;53423;49.224;12.074;2022-10-16T07:38:47;3.50;;;3.20;;
2840;SDS011;53423;49.224;12.074;2022-10-16T07:41:20;3.97;;;3.57;;
2840;SDS011;53423;49.224;12.074;2022-10-16T07:43:49;4.27;;;3.57;;
2840;SDS011;53423;49.224;12.074;2022-10-16T07:46:18;5.60;;;3.27;;
2840;SDS011;53423;49.224;12.074;2022-10-16T07:48:48;3.73;;;3.30;;
2840;SDS011;53423;49.224;12.074;2022-10-16T07:51:17;3.50;;;3.17;;
2840;SDS011;53423;49.224;12.074;2022-10-16T07:53:46;3.83;;;3.53;;
2840;SDS011;53423;49.224;12.074;2022-10-16T07:56:14;3.83;;;3.20;;
2840;SDS011;53423;49.224;12.074;2022-10-16T07:58:43;4.77;;;3.20;;
2840;SDS011;53423;49.224;12.074;2022-10-16T08:01:12;5.33;;;3.30;;
2840;SDS011;53423;49.224;12.074;2022-10-16T08:03:41;5.57;;;3.87;;
2840;SDS011;53423;49.224;12.074;2022-10-16T08:06:11;4.13;;;3.67;;
2840;SDS011;53423;49.224;12.074;2022-10-16T08:08:38;6.03;;;3.80;;
2840;SDS011;53423;49.224;12.074;2022-10-16T08:11:06;3.80;;;3.43;;
2840;SDS011;53423;49.224;12.074;2022-10-16T08:13:34;3.20;;;2.90;;
2840;SDS011;53423;49.224;12.074;2022-10-16T08:16:02;3.80;;;3.50;;
2840;SDS011;53423;49.224;12.074;2022-10-16T08:18:34;6.23;;;2.83;;
2840;SDS011;53423;49.224;12.074;2022-10-16T08:21:03;3.60;;;2.67;;
2840;SDS011;53423;49.224;12.074;2022-10-16T08:23:33;3.33;;;2.57;;
2840;SDS011;53423;49.224;12.074;2022-10-16T08:26:02;3.13;;;2.47;;
2840;SDS011;53423;49.224;12.074;2022-10-16T08:28:32;3.07;;;2.70;;
2840;SDS011;53423;49.224;12.074;2022-10-16T08:31:07;3.10;;;2.80;;
2840;SDS011;53423;49.224;12.074;2022-10-16T08:33:36;2.63;;;2.43;;
2840;SDS011;53423;49.224;12.074;2022-10-16T08:36:04;3.13;;;2.90;;
2840;SDS011;53423;49.224;12.074;2022-10-16T08:38:34;3.10;;;2.80;;
2840;SDS011;53423;49.224;12.074;2022-10-16T08:41:08;2.93;;;2.70;;
2840;SDS011;53423;49.224;12.074;2022-10-16T08:43:51;3.57;;;3.00;;
2840;SDS011;53423;49.224;12.074;2022-10-16T08:46:33;2.97;;;2.67;;
2840;SDS011;53423;49.224;12.074;2022-10-16T08:49:15;2.57;;;2.37;;
2840;SDS011;53423;49.224;12.074;2022-10-16T08:51:43;2.40;;;2.30;;
2840;SDS011;53423;49.224;12.074;2022-10-16T08:54:19;2.70;;;2.50;;
2840;SDS011;53423;49.224;12.074;2022-10-16T08:56:54;2.40;;;2.30;;
2840;SDS011;53423;49.224;12.074;2022-10-16T08:59:22;2.80;;;2.47;;
2840;SDS011;53423;49.224;12.074;2022-10-16T09:01:50;3.00;;;1.97;;
2840;SDS011;53423;49.224;12.074;2022-10-16T09:04:28;2.63;;;2.10;;
2840;SDS011;53423;49.224;12.074;2022-10-16T09:07:23;2.38;;;2.17;;
2840;SDS011;53423;49.224;12.074;2022-10-16T09:10:06;2.03;;;1.85;;
2840;SDS011;53423;49.224;12.074;2022-10-16T09:12:48;4.65;;;1.95;;
2840;SDS011;53423;49.224;12.074;2022-10-16T09:15:24;2.22;;;1.83;;
2840;SDS011;53423;49.224;12.074;2022-10-16T09:18:00;2.55;;;2.08;;
2840;SDS011;53423;49.224;12.074;2022-10-16T09:20:39;2.17;;;1.98;;
2840;SDS011;53423;49.224;12.074;2022-10-16T09:23:17;4.22;;;2.00;;
2840;SDS011;53423;49.224;12.074;2022-10-16T09:25:48;2.72;;;2.08;;
2840;SDS011;53423;49.224;12.074;2022-10-16T09:28:17;4.32;;;2.17;;
2840;SDS011;53423;49.224;12.074;2022-10-16T09:30:46;3.17;;;1.98;;
2840;SDS011;53423;49.224;12.074;2022-10-16T09:33:14;2.90;;;2.28;;
2840;SDS011;53423;49.224;12.074;2022-10-16T09:35:44;2.65;;;2.20;;
2840;SDS011;53423;49.224;12.074;2022-10-16T09:38:24;2.25;;;2.15;;
2840;SDS011;53423;49.224;12.074;2022-10-16T09:40:56;2.30;;;1.90;;
2840;SDS011;53423;49.224;12.074;2022-10-16T09:43:31;3.08;;;2.17;;
2840;SDS011;53423;49.224;12.074;2022-10-16T09:46:02;2.40;;;2.20;;
2840;SDS011;53423;49.224;12.074;2022-10-16T09:48:33;2.60;;;2.40;;
2840;SDS011;53423;49.224;12.074;2022-10-16T09:51:05;3.22;;;2.22;;
2840;SDS011;53423;49.224;12.074;2022-10-16T09:53:43;2.30;;;2.20;;
2840;SDS011;53423;49.224;12.074;2022-10-16T09:56:21;3.55;;;2.30;;
2840;SDS011;53423;49.224;12.074;2022-10-16T09:58:50;2.75;;;2.25;;
2840;SDS011;53423;49.224;12.074;2022-10-16T10:01:19;2.60;;;2.40;;
2840;SDS011;53423;49.224;12.074;2022-10-16T10:03:50;3.22;;;2.22;;
2840;SDS011;53423;49.224;12.074;2022-10-16T10:06:21;2.42;;;2.22;;
2840;SDS011;53423;49.224;12.074;2022-10-16T10:08:58;2.90;;;2.30;;
2840;SDS011;53423;49.224;12.074;2022-10-16T10:14:24;2.60;;;2.40;;
2840;SDS011;53423;49.224;12.074;2022-10-16T10:17:06;2.63;;;2.40;;
2840;SDS011;53423;49.224;12.074;2022-10-16T10:19:39;3.50;;;2.20;;
2840;SDS011;53423;49.224;12.074;2022-10-16T10:24:54;2.47;;;2.28;;
2840;SDS011;53423;49.224;12.074;2022-10-16T10:27:25;2.60;;;2.40;;
2840;SDS011;53423;49.224;12.074;2022-10-16T10:30:05;3.45;;;2.63;;
2840;SDS011;53423;49.224;12.074;2022-10-16T10:32:39;2.75;;;2.50;;
2840;SDS011;53423;49.224;12.074;2022-10-16T10:35:14;2.67;;;2.38;;
2840;SDS011;53423;49.224;12.074;2022-10-16T10:37:53;2.47;;;2.17;;
2840;SDS011;53423;49.224;12.074;2022-10-16T10:40:34;2.63;;;2.30;;
2840;SDS011;53423;49.224;12.074;2022-10-16T10:43:15;5.28;;;2.60;;
2840;SDS011;53423;49.224;12.074;2022-10-16T10:45:52;3.33;;;2.45;;
2840;SDS011;53423;49.224;12.074;2022-10-16T10:48:31;3.08;;;2.60;;
2840;SDS011;53423;49.224;12.074;2022-10-16T10:51:19;2.45;;;2.20;;
2840;SDS011;53423;49.224;12.074;2022-10-16T10:53:56;4.50;;;2.50;;
2840;SDS011;53423;49.224;12.074;2022-10-16T10:56:39;2.47;;;2.28;;
2840;SDS011;53423;49.224;12.074;2022-10-16T10:59:19;2.47;;;2.28;;
2840;SDS011;53423;49.224;12.074;2022-10-16T11:02:00;3.70;;;2.50;;
2840;SDS011;53423;49.224;12.074;2022-10-16T11:04:48;2.40;;;2.20;;
2840;SDS011;53423;49.224;12.074;2022-10-16T11:07:25;3.05;;;2.22;;
2840;SDS011;53423;49.224;12.074;2022-10-16T11:09:57;2.40;;;2.20;;
2840;SDS011;53423;49.224;12.074;2022-10-16T11:12:30;3.70;;;2.40;;
2840;SDS011;53423;49.224;12.074;2022-10-16T11:15:05;2.55;;;2.35;;
2840;SDS011;53423;49.224;12.074;2022-10-16T11:17:41;3.50;;;2.22;;
2840;SDS011;53423;49.224;12.074;2022-10-16T11:20:13;3.00;;;2.33;;
2840;SDS011;53423;49.224;12.074;2022-10-16T11:22:47;5.00;;;2.63;;
2840;SDS011;53423;49.224;12.074;2022-10-16T11:25:19;2.65;;;2.15;;
2840;SDS011;53423;49.224;12.074;2022-10-16T11:27:51;2.55;;;2.35;;
2840;SDS011;53423;49.224;12.074;2022-10-16T11:30:25;2.92;;;2.40;;
2840;SDS011;53423;49.224;12.074;2022-10-16T11:33:03;2.30;;;2.20;;
2840;SDS011;53423;49.224;12.074;2022-10-16T11:35:51;2.53;;;2.33;;
2840;SDS011;53423;49.224;12.074;2022-10-16T11:38:25;5.97;;;2.53;;
2840;SDS011;53423;49.224;12.074;2022-10-16T11:40:59;2.92;;;2.38;;
2840;SDS011;53423;49.224;12.074;2022-10-16T11:43:31;2.38;;;2.17;;
2840;SDS011;53423;49.224;12.074;2022-10-16T11:46:08;2.67;;;2.40;;
2840;SDS011;53423;49.224;12.074;2022-10-16T11:48:41;3.25;;;2.50;;
2840;SDS011;53423;49.224;12.074;2022-10-16T11:51:14;4.50;;;2.30;;
2840;SDS011;53423;49.224;12.074;2022-10-16T11:53:50;3.55;;;2.20;;
2840;SDS011;53423;49.224;12.074;2022-10-16T11:56:25;2.92;;;2.08;;
2840;SDS011;53423;49.224;12.074;2022-10-16T11:58:56;2.53;;;2.03;;
2840;SDS011;53423;49.224;12.074;2022-10-16T12:01:30;2.60;;;2.40;;
2840;SDS011;53423;49.224;12.074;2022-10-16T12:04:11;2.60;;;2.40;;
2840;SDS011;53423;49.224;12.074;2022-10-16T12:06:47;3.97;;;2.47;;
2840;SDS011;53423;49.224;12.074;2022-10-16T12:09:20;2.70;;;2.50;;
2840;SDS011;53423;49.224;12.074;2022-10-16T12:11:52;2.50;;;2.30;;
2840;SDS011;53423;49.224;12.074;2022-10-16T12:17:26;2.42;;;2.15;;
2840;SDS011;53423;49.224;12.074;2022-10-16T12:20:12;2.17;;;1.98;;
2840;SDS011;53423;49.224;12.074;2022-10-16T12:22:47;2.50;;;2.30;;
2840;SDS011;53423;49.224;12.074;2022-10-16T12:25:20;2.40;;;2.20;;
2840;SDS011;53423;49.224;12.074;2022-10-16T12:27:53;4.38;;;2.50;;
2840;SDS011;53423;49.224;12.074;2022-10-16T12:30:24;3.58;;;2.10;;
2840;SDS011;53423;49.224;12.074;2022-10-16T12:33:01;2.30;;;2.15;;
2840;SDS011;53423;49.224;12.074;2022-10-16T12:35:32;2.72;;;2.35;;
2840;SDS011;53423;49.224;12.074;2022-10-16T12:38:08;2.30;;;2.10;;
2840;SDS011;53423;49.224;12.074;2022-10-16T12:40:44;2.63;;;2.13;;
2840;SDS011;53423;49.224;12.074;2022-10-16T12:43:28;2.38;;;2.17;;
2840;SDS011;53423;49.224;12.074;2022-10-16T12:46:05;2.47;;;2.17;;
2840;SDS011;53423;49.224;12.074;2022-10-16T12:48:50;2.22;;;2.08;;
2840;SDS011;53423;49.224;12.074;2022-10-16T12:51:34;2.25;;;2.05;;
2840;SDS011;53423;49.224;12.074;2022-10-16T12:54:04;2.15;;;1.98;;
2840;SDS011;53423;49.224;12.074;2022-10-16T12:56:41;4.32;;;2.50;;
2840;SDS011;53423;49.224;12.074;2022-10-16T12:59:20;3.17;;;2.63;;
2840;SDS011;53423;49.224;12.074;2022-10-16T13:02:01;2.25;;;2.08;;
2840;SDS011;53423;49.224;12.074;2022-10-16T13:04:55;2.60;;;2.40;;
2840;SDS011;53423;49.224;12.074;2022-10-16T13:07:38;2.72;;;2.30;;
2840;SDS011;53423;49.224;12.074;2022-10-16T13:10:17;4.90;;;2.50;;
2840;SDS011;53423;49.224;12.074;2022-10-16T13:12:57;4.57;;;2.50;;
2840;SDS011;53423;49.224;12.074;2022-10-16T13:15:50;6.45;;;2.55;;
2840;SDS011;53423;49.224;12.074;2022-10-16T13:18:26;2.17;;;1.95;;
2840;SDS011;53423;49.224;12.074;2022-10-16T13:21:03;2.47;;;2.28;;
2840;SDS011;53423;49.224;12.074;2022-10-16T13:23:42;2.78;;;2.15;;
2840;SDS011;53423;49.224;12.074;2022-10-16T13:26:17;2.38;;;2.17;;
2840;SDS011;53423;49.224;12.074;2022-10-16T13:28:53;2.72;;;2.30;;
2840;SDS011;53423;49.224;12.074;2022-10-16T13:31:27;2.38;;;2.10;;
2840;SDS011;53423;49.224;12.074;2022-10-16T13:33:56;2.95;;;2.13;;
2840;SDS011;53423;49.224;12.074;2022-10-16T13:36:27;3.53;;;2.17;;
2840;SDS011;53423;49.224;12.074;2022-10-16T13:39:00;2.40;;;2.20;;
2840;SDS011;53423;49.224;12.074;2022-10-16T13:41:34;2.28;;;2.08;;
2840;SDS011;53423;49.224;12.074;2022-10-16T13:44:01;3.05;;;2.00;;
2840;SDS011;53423;49.224;12.074;2022-10-16T13:46:29;5.03;;;2.35;;
2840;SDS011;53423;49.224;12.074;2022-10-16T13:49:01;2.10;;;1.90;;
2840;SDS011;53423;49.224;12.074;2022-10-16T13:51:32;2.60;;;2.15;;
2840;SDS011;53423;49.224;12.074;2022-10-16T13:54:00;2.30;;;1.95;;
2840;SDS011;53423;49.224;12.074;2022-10-16T13:56:28;2.75;;;2.03;;
2840;SDS011;53423;49.224;12.074;2022-10-16T13:58:57;2.20;;;2.00;;
2840;SDS011;53423;49.224;12.074;2022-10-16T14:01:26;1.75;;;1.48;;
2840;SDS011;53423;49.224;12.074;2022-10-16T14:04:01;1.55;;;1.45;;
2840;SDS011;53423;49.224;12.074;2022-10-16T14:06:32;4.47;;;1.35;;
2840;SDS011;53423;49.224;12.074;2022-10-16T14:09:01;1.70;;;1.60;;
2840;SDS011;53423;49.224;12.074;2022-10-16T14:11:33;1.20;;;1.20;;
2840;SDS011;53423;49.224;12.074;2022-10-16T14:14:08;1.65;;;1.52;;
2840;SDS011;53423;49.224;12.074;2022-10-16T14:16:39;2.33;;;2.13;;
2840;SDS011;53423;49.224;12.074;2022-10-16T14:19:13;3.17;;;2.28;;
2840;SDS011;53423;49.224;12.074;2022-10-16T14:21:46;3.63;;;2.30;;
2840;SDS011;53423;49.224;12.074;2022-10-16T14:24:19;4.15;;;2.05;;
2840;SDS011;53423;49.224;12.074;2022-10-16T14:26:52;3.03;;;2.22;;
2840;SDS011;53423;49.224;12.074;2022-10-16T14:29:23;2.97;;;2.17;;
2840;SDS011;53423;49.224;12.074;2022-10-16T14:31:55;3.50;;;2.08;;
2840;SDS011;53423;49.224;12.074;2022-10-16T14:34:25;2.05;;;1.88;;
2840;SDS011;53423;49.224;12.074;2022-10-16T14:36:55;4.35;;;2.20;;
2840;SDS011;53423;49.224;12.074;2022-10-16T14:39:27;4.22;;;2.22;;
2840;SDS011;53423;49.224;12.074;2022-10-16T14:41:55;2.20;;;2.00;;
2840;SDS011;53423;49.224;12.074;2022-10-16T14:44:27;6.68;;;2.10;;
2840;SDS011;53423;49.224;12.074;2022-10-16T14:46:57;2.97;;;2.40;;
2840;SDS011;53423;49.224;12.074;2022-10-16T14:49:33;2.85;;;2.13;;
2840;SDS011;53423;49.224;12.074;2022-10-16T14:52:07;3.10;;;2.15;;
2840;SDS011;53423;49.224;12.074;2022-10-16T14:54:37;2.00;;;1.90;;
2840;SDS011;53423;49.224;12.074;2022-10-16T14:57:05;2.42;;;2.10;;
2840;SDS011;53423;49.224;12.074;2022-10-16T14:59:33;2.17;;;1.95;;
2840;SDS011;53423;49.224;12.074;2022-10-16T15:02:09;1.95;;;1.85;;
2840;SDS011;53423;49.224;12.074;2022-10-16T15:04:46;3.13;;;2.00;;
2840;SDS011;53423;49.224;12.074;2022-10-16T15:07:15;2.50;;;1.92;;
2840;SDS011;53423;49.224;12.074;2022-10-16T15:09:43;2.55;;;2.35;;
2840;SDS011;53423;49.224;12.074;2022-10-16T15:12:14;2.77;;;2.10;;
2840;SDS011;53423;49.224;12.074;2022-10-16T15:14:42;3.85;;;2.35;;
2840;SDS011;53423;49.224;12.074;2022-10-16T15:17:10;2.63;;;2.00;;
2840;SDS011;53423;49.224;12.074;2022-10-16T15:19:41;3.27;;;2.17;;
2840;SDS011;53423;49.224;12.074;2022-10-16T15:22:09;2.30;;;2.13;;